sensor_id;sensor_type;location;lat;lon;timestamp;pressure;altitude;pressure_sealevel;temperature;humidity
71344;BME280;59146;43.850;25.948;2023-04-19T00:00:32;100821.31;;;9.93;93.73
71344;BME280;59146;43.850;25.948;2023-04-19T00:02:59;100838.38;;;9.83;93.20
71344;BME280;59146;43.850;25.948;2023-04-19T00:05:25;100763.41;;;9.54;94.62
71344;BME280;59146;43.850;25.948;2023-04-19T00:07:50;100834.66;;;10.04;94.28
71344;BME280;59146;43.850;25.948;2023-04-19T00:10:16;100837.56;;;10.15;94.70
71344;BME280;59146;43.850;25.948;2023-04-19T00:12:41;100750.13;;;9.58;94.23
71344;BME280;59146;43.850;25.948;2023-04-19T00:15:07;100818.69;;;9.93;95.11
71344;BME280;59146;43.850;25.948;2023-04-19T00:17:33;100758.41;;;9.67;96.52
71344;BME280;59146;43.850;25.948;2023-04-19T00:19:59;100816.53;;;10.01;97.63
71344;BME280;59146;43.850;25.948;2023-04-19T00:22:24;100803.09;;;10.09;98.14
71344;BME280;59146;43.850;25.948;2023-04-19T00:24:51;100777.94;;;9.91;96.03
71344;BME280;59146;43.850;25.948;2023-04-19T00:27:16;100819.91;;;10.03;95.57
71344;BME280;59146;43.850;25.948;2023-04-19T00:29:42;100793.25;;;9.81;96.14
71344;BME280;59146;43.850;25.948;2023-04-19T00:32:07;100793.16;;;9.67;96.76
71344;BME280;59146;43.850;25.948;2023-04-19T00:34:33;100827.03;;;9.84;97.71
71344;BME280;59146;43.850;25.948;2023-04-19T00:36:58;100750.94;;;9.43;98.36
71344;BME280;59146;43.850;25.948;2023-04-19T00:39:23;100762.94;;;9.63;99.54
71344;BME280;59146;43.850;25.948;2023-04-19T00:41:49;100771.66;;;9.62;98.29
71344;BME280;59146;43.850;25.948;2023-04-19T00:44:14;100767.25;;;9.47;98.46
71344;BME280;59146;43.850;25.948;2023-04-19T00:46:40;100759.09;;;9.53;99.77
71344;BME280;59146;43.850;25.948;2023-04-19T00:49:06;100722.41;;;9.40;99.66
71344;BME280;59146;43.850;25.948;2023-04-19T00:51:32;100758.94;;;9.56;97.68
71344;BME280;59146;43.850;25.948;2023-04-19T00:53:58;100782.28;;;9.59;97.34
71344;BME280;59146;43.850;25.948;2023-04-19T00:56:25;100814.28;;;9.78;98.00
71344;BME280;59146;43.850;25.948;2023-04-19T00:58:52;100782.41;;;9.73;99.49
71344;BME280;59146;43.850;25.948;2023-04-19T01:01:18;100763.47;;;9.70;100.00
71344;BME280;59146;43.850;25.948;2023-04-19T01:03:45;100806.09;;;10.01;98.45
71344;BME280;59146;43.850;25.948;2023-04-19T01:06:11;100646.81;;;8.91;96.24
71344;BME280;59146;43.850;25.948;2023-04-19T01:08:37;100788.19;;;9.78;96.92
71344;BME280;59146;43.850;25.948;2023-04-19T01:11:03;100789.94;;;9.62;97.43
71344;BME280;59146;43.850;25.948;2023-04-19T01:13:29;100794.44;;;9.76;97.35
71344;BME280;59146;43.850;25.948;2023-04-19T01:15:54;100645.78;;;8.77;97.45
71344;BME280;59146;43.850;25.948;2023-04-19T01:18:21;100754.69;;;9.55;98.52
71344;BME280;59146;43.850;25.948;2023-04-19T01:20:48;100787.53;;;9.75;97.25
71344;BME280;59146;43.850;25.948;2023-04-19T01:23:14;100712.69;;;9.27;96.61
71344;BME280;59146;43.850;25.948;2023-04-19T01:25:39;100760.19;;;9.49;97.62
71344;BME280;59146;43.850;25.948;2023-04-19T01:28:05;100754.19;;;9.64;98.62
71344;BME280;59146;43.850;25.948;2023-04-19T01:30:30;100652.97;;;9.22;97.38
71344;BME280;59146;43.850;25.948;2023-04-19T01:32:56;100714.34;;;9.45;96.27
71344;BME280;59146;43.850;25.948;2023-04-19T01:35:21;100805.19;;;10.02;98.09
71344;BME280;59146;43.850;25.948;2023-04-19T01:37:47;100805.81;;;10.23;99.69
71344;BME280;59146;43.850;25.948;2023-04-19T01:40:12;100781.06;;;10.14;99.09
71344;BME280;59146;43.850;25.948;2023-04-19T01:42:38;100733.19;;;9.98;95.25
71344;BME280;59146;43.850;25.948;2023-04-19T01:45:04;100799.34;;;10.30;93.60
71344;BME280;59146;43.850;25.948;2023-04-19T01:47:30;100748.50;;;9.89;94.66
71344;BME280;59146;43.850;25.948;2023-04-19T01:49:55;100783.22;;;10.06;96.14
71344;BME280;59146;43.850;25.948;2023-04-19T01:52:21;100809.28;;;10.23;96.93
71344;BME280;59146;43.850;25.948;2023-04-19T01:54:46;100758.56;;;10.12;96.73
71344;BME280;59146;43.850;25.948;2023-04-19T01:57:11;100626.41;;;9.16;96.28
71344;BME280;59146;43.850;25.948;2023-04-19T01:59:37;100778.66;;;9.94;96.70
71344;BME280;59146;43.850;25.948;2023-04-19T02:02:05;100769.63;;;9.84;97.78
71344;BME280;59146;43.850;25.948;2023-04-19T02:04:32;100714.19;;;9.63;98.36
71344;BME280;59146;43.850;25.948;2023-04-19T02:06:58;100751.03;;;9.90;95.92
71344;BME280;59146;43.850;25.948;2023-04-19T02:09:23;100770.25;;;10.05;95.25
71344;BME280;59146;43.850;25.948;2023-04-19T02:11:49;100789.09;;;10.10;95.47
71344;BME280;59146;43.850;25.948;2023-04-19T02:14:14;100735.88;;;9.81;94.20
71344;BME280;59146;43.850;25.948;2023-04-19T02:16:39;100781.34;;;9.93;93.24
71344;BME280;59146;43.850;25.948;2023-04-19T02:19:05;100741.94;;;9.49;92.75
71344;BME280;59146;43.850;25.948;2023-04-19T02:21:30;100771.66;;;9.62;94.82
71344;BME280;59146;43.850;25.948;2023-04-19T02:23:56;100746.44;;;9.63;94.87
71344;BME280;59146;43.850;25.948;2023-04-19T02:26:21;100770.47;;;9.85;94.67
71344;BME280;59146;43.850;25.948;2023-04-19T02:28:50;100795.66;;;10.01;93.61
71344;BME280;59146;43.850;25.948;2023-04-19T02:31:16;100702.94;;;9.30;93.28
71344;BME280;59146;43.850;25.948;2023-04-19T02:33:42;100754.84;;;9.35;95.02
71344;BME280;59146;43.850;25.948;2023-04-19T02:36:08;100757.44;;;9.52;96.51
71344;BME280;59146;43.850;25.948;2023-04-19T02:38:33;100765.97;;;9.71;96.97
71344;BME280;59146;43.850;25.948;2023-04-19T02:40:59;100692.81;;;9.41;95.58
71344;BME280;59146;43.850;25.948;2023-04-19T02:43:26;100779.94;;;9.70;94.16
71344;BME280;59146;43.850;25.948;2023-04-19T02:45:51;100769.38;;;9.56;95.51
71344;BME280;59146;43.850;25.948;2023-04-19T02:48:17;100751.97;;;9.56;96.56
71344;BME280;59146;43.850;25.948;2023-04-19T02:50:42;100697.41;;;9.36;96.34
71344;BME280;59146;43.850;25.948;2023-04-19T02:53:08;100747.72;;;9.71;95.77
71344;BME280;59146;43.850;25.948;2023-04-19T02:55:33;100752.31;;;9.66;95.15
71344;BME280;59146;43.850;25.948;2023-04-19T02:57:58;100702.59;;;9.21;96.88
71344;BME280;59146;43.850;25.948;2023-04-19T03:00:24;100602.28;;;8.79;98.41
71344;BME280;59146;43.850;25.948;2023-04-19T03:02:49;100626.50;;;8.97;97.14
71344;BME280;59146;43.850;25.948;2023-04-19T03:05:15;100720.59;;;9.58;95.74
71344;BME280;59146;43.850;25.948;2023-04-19T03:07:40;100758.47;;;9.65;94.98
71344;BME280;59146;43.850;25.948;2023-04-19T03:10:06;100701.06;;;9.17;96.20
71344;BME280;59146;43.850;25.948;2023-04-19T03:12:32;100705.63;;;9.29;97.17
71344;BME280;59146;43.850;25.948;2023-04-19T03:14:57;100739.47;;;9.63;96.12
71344;BME280;59146;43.850;25.948;2023-04-19T03:17:23;100707.16;;;9.33;95.55
71344;BME280;59146;43.850;25.948;2023-04-19T03:19:48;100761.25;;;9.62;97.05
71344;BME280;59146;43.850;25.948;2023-04-19T03:22:13;100777.41;;;9.69;97.18
71344;BME280;59146;43.850;25.948;2023-04-19T03:24:39;100760.59;;;9.74;98.49
71344;BME280;59146;43.850;25.948;2023-04-19T03:27:04;100756.59;;;9.84;98.00
71344;BME280;59146;43.850;25.948;2023-04-19T03:29:30;100776.38;;;9.88;95.81
71344;BME280;59146;43.850;25.948;2023-04-19T03:31:55;100677.06;;;9.27;95.43
71344;BME280;59146;43.850;25.948;2023-04-19T03:34:21;100748.19;;;9.62;96.13
71344;BME280;59146;43.850;25.948;2023-04-19T03:36:46;100756.22;;;9.75;96.14
71344;BME280;59146;43.850;25.948;2023-04-19T03:39:12;100734.50;;;9.74;96.10
71344;BME280;59146;43.850;25.948;2023-04-19T03:41:39;100781.25;;;9.94;93.72
71344;BME280;59146;43.850;25.948;2023-04-19T03:44:04;100778.94;;;9.73;94.24
71344;BME280;59146;43.850;25.948;2023-04-19T03:46:30;100750.59;;;9.49;95.81
71344;BME280;59146;43.850;25.948;2023-04-19T03:48:58;100780.22;;;9.81;95.90
71344;BME280;59146;43.850;25.948;2023-04-19T03:51:23;100774.09;;;9.82;95.98
71344;BME280;59146;43.850;25.948;2023-04-19T03:53:49;100756.09;;;9.60;94.71
71344;BME280;59146;43.850;25.948;2023-04-19T03:56:14;100722.97;;;9.30;95.34
71344;BME280;59146;43.850;25.948;2023-04-19T03:58:39;100697.16;;;9.08;96.07
71344;BME280;59146;43.850;25.948;2023-04-19T04:01:05;100687.19;;;8.99;96.66
71344;BME280;59146;43.850;25.948;2023-04-19T04:03:32;100716.56;;;9.03;97.75
71344;BME280;59146;43.850;25.948;2023-04-19T04:05:58;100766.81;;;9.39;97.81
71344;BME280;59146;43.850;25.948;2023-04-19T04:08:23;100698.38;;;9.01;97.93
71344;BME280;59146;43.850;25.948;2023-04-19T04:10:49;100694.44;;;8.94;97.51
71344;BME280;59146;43.850;25.948;2023-04-19T04:13:14;100715.84;;;8.99;98.23
71344;BME280;59146;43.850;25.948;2023-04-19T04:15:39;100781.56;;;9.55;98.56
71344;BME280;59146;43.850;25.948;2023-04-19T04:18:05;100702.59;;;9.21;97.75
71344;BME280;59146;43.850;25.948;2023-04-19T04:20:30;100744.44;;;9.18;97.80
71344;BME280;59146;43.850;25.948;2023-04-19T04:22:56;100694.00;;;9.19;98.37
71344;BME280;59146;43.850;25.948;2023-04-19T04:25:21;100660.88;;;9.21;97.02
71344;BME280;59146;43.850;25.948;2023-04-19T04:27:49;100778.84;;;9.74;95.49
71344;BME280;59146;43.850;25.948;2023-04-19T04:30:15;100737.66;;;9.48;95.17
71344;BME280;59146;43.850;25.948;2023-04-19T04:32:41;100720.72;;;9.39;96.62
71344;BME280;59146;43.850;25.948;2023-04-19T04:35:08;100671.84;;;9.27;96.97
71344;BME280;59146;43.850;25.948;2023-04-19T04:37:35;100652.66;;;9.28;95.67
71344;BME280;59146;43.850;25.948;2023-04-19T04:40:01;100754.75;;;9.86;93.83
71344;BME280;59146;43.850;25.948;2023-04-19T04:42:29;100743.97;;;9.59;95.05
71344;BME280;59146;43.850;25.948;2023-04-19T04:44:56;100752.28;;;9.83;96.32
71344;BME280;59146;43.850;25.948;2023-04-19T04:47:22;100704.63;;;9.64;95.29
71344;BME280;59146;43.850;25.948;2023-04-19T04:49:48;100699.84;;;9.72;94.07
71344;BME280;59146;43.850;25.948;2023-04-19T04:52:13;100759.63;;;9.92;92.80
71344;BME280;59146;43.850;25.948;2023-04-19T04:54:39;100680.63;;;9.42;94.30
71344;BME280;59146;43.850;25.948;2023-04-19T04:57:04;100734.44;;;9.76;95.21
71344;BME280;59146;43.850;25.948;2023-04-19T04:59:30;100680.13;;;9.51;95.28
71344;BME280;59146;43.850;25.948;2023-04-19T05:01:55;100730.59;;;9.98;93.93
71344;BME280;59146;43.850;25.948;2023-04-19T05:04:20;100775.75;;;10.31;91.70
71344;BME280;59146;43.850;25.948;2023-04-19T05:06:46;100747.91;;;9.99;91.20
71344;BME280;59146;43.850;25.948;2023-04-19T05:09:11;100784.66;;;10.12;93.44
71344;BME280;59146;43.850;25.948;2023-04-19T05:11:37;100752.19;;;10.17;92.75
71344;BME280;59146;43.850;25.948;2023-04-19T05:14:03;100699.19;;;10.00;90.27
71344;BME280;59146;43.850;25.948;2023-04-19T05:16:28;100701.53;;;10.04;89.82
71344;BME280;59146;43.850;25.948;2023-04-19T05:18:54;100714.66;;;9.87;90.25
71344;BME280;59146;43.850;25.948;2023-04-19T05:21:20;100672.22;;;9.52;90.63
71344;BME280;59146;43.850;25.948;2023-04-19T05:23:45;100754.78;;;10.17;90.11
71344;BME280;59146;43.850;25.948;2023-04-19T05:26:11;100790.00;;;10.42;88.87
71344;BME280;59146;43.850;25.948;2023-04-19T05:28:39;100746.28;;;10.14;88.16
71344;BME280;59146;43.850;25.948;2023-04-19T05:31:04;100704.41;;;9.84;89.17
71344;BME280;59146;43.850;25.948;2023-04-19T05:33:30;100767.41;;;10.09;89.44
71344;BME280;59146;43.850;25.948;2023-04-19T05:35:55;100699.94;;;9.86;89.00
71344;BME280;59146;43.850;25.948;2023-04-19T05:38:21;100731.38;;;10.16;88.77
71344;BME280;59146;43.850;25.948;2023-04-19T05:40:46;100758.84;;;10.38;87.97
71344;BME280;59146;43.850;25.948;2023-04-19T05:43:11;100744.41;;;10.16;87.13
71344;BME280;59146;43.850;25.948;2023-04-19T05:45:37;100741.00;;;10.15;89.00
71344;BME280;59146;43.850;25.948;2023-04-19T05:48:02;100745.94;;;10.35;88.95
71344;BME280;59146;43.850;25.948;2023-04-19T05:50:28;100732.13;;;10.49;87.36
71344;BME280;59146;43.850;25.948;2023-04-19T05:52:53;100736.59;;;10.47;85.53
71344;BME280;59146;43.850;25.948;2023-04-19T05:55:19;100766.53;;;10.56;87.53
71344;BME280;59146;43.850;25.948;2023-04-19T05:57:44;100718.16;;;10.34;85.73
71344;BME280;59146;43.850;25.948;2023-04-19T06:00:10;100731.53;;;10.60;86.43
71344;BME280;59146;43.850;25.948;2023-04-19T06:02:35;100770.19;;;10.98;85.38
71344;BME280;59146;43.850;25.948;2023-04-19T06:05:01;100746.66;;;10.98;84.10
71344;BME280;59146;43.850;25.948;2023-04-19T06:07:29;100724.75;;;10.56;83.11
71344;BME280;59146;43.850;25.948;2023-04-19T06:09:55;100703.31;;;10.35;83.36
71344;BME280;59146;43.850;25.948;2023-04-19T06:12:20;100626.97;;;10.00;83.22
71344;BME280;59146;43.850;25.948;2023-04-19T06:14:46;100712.47;;;10.58;83.09
71344;BME280;59146;43.850;25.948;2023-04-19T06:17:11;100757.28;;;10.66;83.26
71344;BME280;59146;43.850;25.948;2023-04-19T06:19:36;100750.06;;;10.39;84.86
71344;BME280;59146;43.850;25.948;2023-04-19T06:22:02;100710.59;;;10.30;85.91
71344;BME280;59146;43.850;25.948;2023-04-19T06:24:27;100732.19;;;10.63;84.03
71344;BME280;59146;43.850;25.948;2023-04-19T06:26:53;100751.41;;;10.92;83.70
71344;BME280;59146;43.850;25.948;2023-04-19T06:29:18;100630.06;;;10.22;83.17
71344;BME280;59146;43.850;25.948;2023-04-19T06:31:46;100751.72;;;10.56;83.19
71344;BME280;59146;43.850;25.948;2023-04-19T06:34:11;100766.44;;;10.73;84.79
71344;BME280;59146;43.850;25.948;2023-04-19T06:36:37;100757.78;;;11.02;82.33
71344;BME280;59146;43.850;25.948;2023-04-19T06:39:02;100708.47;;;10.96;82.55
71344;BME280;59146;43.850;25.948;2023-04-19T06:41:28;100763.09;;;11.44;79.99
71344;BME280;59146;43.850;25.948;2023-04-19T06:43:53;100751.34;;;11.37;80.79
71344;BME280;59146;43.850;25.948;2023-04-19T06:46:19;100737.56;;;11.19;80.53
71344;BME280;59146;43.850;25.948;2023-04-19T06:48:44;100739.16;;;11.22;80.92
71344;BME280;59146;43.850;25.948;2023-04-19T06:51:10;100774.31;;;11.46;81.02
71344;BME280;59146;43.850;25.948;2023-04-19T06:53:35;100759.19;;;11.51;79.33
71344;BME280;59146;43.850;25.948;2023-04-19T06:56:02;100778.03;;;11.28;79.62
71344;BME280;59146;43.850;25.948;2023-04-19T06:58:31;100708.84;;;10.90;79.96
71344;BME280;59146;43.850;25.948;2023-04-19T07:00:57;100613.75;;;10.49;80.73
71344;BME280;59146;43.850;25.948;2023-04-19T07:03:23;100732.81;;;11.26;81.93
71344;BME280;59146;43.850;25.948;2023-04-19T07:05:48;100773.06;;;11.38;83.03
71344;BME280;59146;43.850;25.948;2023-04-19T07:08:16;100762.41;;;11.70;81.65
71344;BME280;59146;43.850;25.948;2023-04-19T07:10:42;100739.50;;;11.74;77.93
71344;BME280;59146;43.850;25.948;2023-04-19T07:13:10;100656.34;;;11.23;77.18
71344;BME280;59146;43.850;25.948;2023-04-19T07:15:35;100718.38;;;11.77;79.89
71344;BME280;59146;43.850;25.948;2023-04-19T07:18:01;100698.41;;;12.03;78.46
71344;BME280;59146;43.850;25.948;2023-04-19T07:20:27;100628.00;;;11.71;75.83
71344;BME280;59146;43.850;25.948;2023-04-19T07:22:53;100761.56;;;12.39;73.57
71344;BME280;59146;43.850;25.948;2023-04-19T07:25:18;100748.03;;;12.18;76.57
71344;BME280;59146;43.850;25.948;2023-04-19T07:27:44;100772.50;;;12.45;76.88
71344;BME280;59146;43.850;25.948;2023-04-19T07:30:10;100707.41;;;12.39;75.49
71344;BME280;59146;43.850;25.948;2023-04-19T07:32:35;100755.44;;;12.79;73.24
71344;BME280;59146;43.850;25.948;2023-04-19T07:35:00;100729.91;;;12.15;74.70
71344;BME280;59146;43.850;25.948;2023-04-19T07:37:26;100747.22;;;12.44;75.38
71344;BME280;59146;43.850;25.948;2023-04-19T07:39:52;100756.56;;;12.75;74.26
71344;BME280;59146;43.850;25.948;2023-04-19T07:42:18;100726.19;;;12.85;73.47
71344;BME280;59146;43.850;25.948;2023-04-19T07:44:43;100768.31;;;12.82;73.04
71344;BME280;59146;43.850;25.948;2023-04-19T07:47:08;100721.88;;;12.45;72.58
71344;BME280;59146;43.850;25.948;2023-04-19T07:49:34;100738.75;;;12.80;72.38
71344;BME280;59146;43.850;25.948;2023-04-19T07:52:00;100728.38;;;12.78;72.77
71344;BME280;59146;43.850;25.948;2023-04-19T07:54:28;100737.25;;;13.03;72.25
71344;BME280;59146;43.850;25.948;2023-04-19T07:56:55;100793.34;;;13.00;73.66
71344;BME280;59146;43.850;25.948;2023-04-19T07:59:23;100763.16;;;13.07;73.10
71344;BME280;59146;43.850;25.948;2023-04-19T08:01:48;100759.41;;;13.11;73.12
71344;BME280;59146;43.850;25.948;2023-04-19T08:04:14;100757.47;;;12.88;73.85
71344;BME280;59146;43.850;25.948;2023-04-19T08:06:41;100741.72;;;12.88;73.52
71344;BME280;59146;43.850;25.948;2023-04-19T08:09:06;100772.88;;;13.19;73.67
71344;BME280;59146;43.850;25.948;2023-04-19T08:11:32;100684.72;;;13.04;71.95
71344;BME280;59146;43.850;25.948;2023-04-19T08:13:58;100727.69;;;13.02;72.23
71344;BME280;59146;43.850;25.948;2023-04-19T08:16:23;100758.78;;;12.81;74.88
71344;BME280;59146;43.850;25.948;2023-04-19T08:18:48;100707.41;;;12.78;74.75
71344;BME280;59146;43.850;25.948;2023-04-19T08:21:16;100757.50;;;13.13;73.87
71344;BME280;59146;43.850;25.948;2023-04-19T08:23:42;100766.56;;;13.34;72.73
71344;BME280;59146;43.850;25.948;2023-04-19T08:26:07;100746.97;;;13.40;73.62
71344;BME280;59146;43.850;25.948;2023-04-19T08:28:32;100788.41;;;13.73;73.21
71344;BME280;59146;43.850;25.948;2023-04-19T08:30:58;100715.56;;;13.38;71.92
71344;BME280;59146;43.850;25.948;2023-04-19T08:33:23;100748.72;;;13.90;70.21
71344;BME280;59146;43.850;25.948;2023-04-19T08:35:49;100751.06;;;14.18;70.45
71344;BME280;59146;43.850;25.948;2023-04-19T08:38:15;100720.88;;;13.87;68.94
71344;BME280;59146;43.850;25.948;2023-04-19T08:40:45;100728.97;;;13.97;68.04
71344;BME280;59146;43.850;25.948;2023-04-19T08:43:11;100769.06;;;14.11;69.30
71344;BME280;59146;43.850;25.948;2023-04-19T08:45:36;100689.69;;;13.83;69.16
71344;BME280;59146;43.850;25.948;2023-04-19T08:48:03;100714.50;;;14.15;68.64
71344;BME280;59146;43.850;25.948;2023-04-19T08:50:29;100761.69;;;14.76;67.76
71344;BME280;59146;43.850;25.948;2023-04-19T08:52:57;100716.47;;;14.24;65.81
71344;BME280;59146;43.850;25.948;2023-04-19T08:55:23;100759.41;;;14.48;66.83
71344;BME280;59146;43.850;25.948;2023-04-19T08:57:49;100722.97;;;14.78;66.46
71344;BME280;59146;43.850;25.948;2023-04-19T09:00:15;100731.34;;;15.29;64.55
71344;BME280;59146;43.850;25.948;2023-04-19T09:02:48;100760.28;;;15.64;64.41
71344;BME280;59146;43.850;25.948;2023-04-19T09:05:16;100771.28;;;15.58;65.63
71344;BME280;59146;43.850;25.948;2023-04-19T09:07:43;100702.16;;;14.75;66.48
71344;BME280;59146;43.850;25.948;2023-04-19T09:10:13;100772.41;;;15.32;65.83
71344;BME280;59146;43.850;25.948;2023-04-19T09:12:40;100715.22;;;15.23;63.04
71344;BME280;59146;43.850;25.948;2023-04-19T09:15:06;100715.00;;;15.37;63.15
71344;BME280;59146;43.850;25.948;2023-04-19T09:17:36;100773.75;;;15.37;64.60
71344;BME280;59146;43.850;25.948;2023-04-19T09:20:03;100711.69;;;15.00;64.84
71344;BME280;59146;43.850;25.948;2023-04-19T09:22:29;100759.31;;;15.76;63.70
71344;BME280;59146;43.850;25.948;2023-04-19T09:24:55;100772.50;;;15.98;63.17
71344;BME280;59146;43.850;25.948;2023-04-19T09:27:31;100732.28;;;15.85;62.59
71344;BME280;59146;43.850;25.948;2023-04-19T09:29:59;100721.72;;;15.96;61.55
71344;BME280;59146;43.850;25.948;2023-04-19T09:32:25;100767.75;;;16.89;59.19
71344;BME280;59146;43.850;25.948;2023-04-19T09:34:58;100733.94;;;16.94;57.27
71344;BME280;59146;43.850;25.948;2023-04-19T09:37:24;100757.13;;;17.11;57.49
71344;BME280;59146;43.850;25.948;2023-04-19T09:39:51;100680.44;;;15.85;61.92
71344;BME280;59146;43.850;25.948;2023-04-19T09:42:16;100703.16;;;15.98;62.24
71344;BME280;59146;43.850;25.948;2023-04-19T09:44:58;100722.09;;;15.92;62.01
71344;BME280;59146;43.850;25.948;2023-04-19T09:47:24;100772.81;;;16.38;62.96
71344;BME280;59146;43.850;25.948;2023-04-19T09:50:10;100745.19;;;16.10;62.81
71344;BME280;59146;43.850;25.948;2023-04-19T09:52:36;100733.44;;;16.03;62.53
71344;BME280;59146;43.850;25.948;2023-04-19T09:55:03;100754.59;;;16.46;59.44
71344;BME280;59146;43.850;25.948;2023-04-19T09:57:33;100729.69;;;16.50;60.64
71344;BME280;59146;43.850;25.948;2023-04-19T09:59:59;100754.69;;;16.66;58.40
71344;BME280;59146;43.850;25.948;2023-04-19T10:02:29;100716.66;;;16.15;59.73
71344;BME280;59146;43.850;25.948;2023-04-19T10:04:56;100685.31;;;16.01;59.54
71344;BME280;59146;43.850;25.948;2023-04-19T10:07:22;100716.44;;;16.61;57.88
71344;BME280;59146;43.850;25.948;2023-04-19T10:09:49;100696.25;;;16.39;57.37
71344;BME280;59146;43.850;25.948;2023-04-19T10:12:15;100716.16;;;16.21;59.56
71344;BME280;59146;43.850;25.948;2023-04-19T10:14:41;100730.09;;;15.90;62.20
71344;BME280;59146;43.850;25.948;2023-04-19T10:17:07;100733.22;;;16.06;59.95
71344;BME280;59146;43.850;25.948;2023-04-19T10:19:34;100696.63;;;16.24;59.66
71344;BME280;59146;43.850;25.948;2023-04-19T10:22:01;100755.59;;;16.77;60.01
71344;BME280;59146;43.850;25.948;2023-04-19T10:24:32;100735.03;;;16.48;59.84
71344;BME280;59146;43.850;25.948;2023-04-19T10:27:11;100699.25;;;16.35;58.27
71344;BME280;59146;43.850;25.948;2023-04-19T10:29:55;100664.19;;;16.23;57.85
71344;BME280;59146;43.850;25.948;2023-04-19T10:32:22;100708.16;;;16.65;58.27
71344;BME280;59146;43.850;25.948;2023-04-19T10:34:51;100690.72;;;16.00;59.18
71344;BME280;59146;43.850;25.948;2023-04-19T10:37:29;100666.94;;;15.46;60.25
71344;BME280;59146;43.850;25.948;2023-04-19T10:39:55;100758.47;;;15.75;60.61
71344;BME280;59146;43.850;25.948;2023-04-19T10:42:20;100744.59;;;15.96;61.17
71344;BME280;59146;43.850;25.948;2023-04-19T10:51:16;100712.81;;;15.20;62.73
71344;BME280;59146;43.850;25.948;2023-04-19T10:53:58;100673.69;;;14.69;62.61
71344;BME280;59146;43.850;25.948;2023-04-19T11:01:46;100682.53;;;14.21;65.90
71344;BME280;59146;43.850;25.948;2023-04-19T11:04:17;100715.22;;;14.53;66.36
71344;BME280;59146;43.850;25.948;2023-04-19T11:09:25;100720.56;;;14.28;66.01
71344;BME280;59146;43.850;25.948;2023-04-19T11:11:58;100706.88;;;14.36;66.58
71344;BME280;59146;43.850;25.948;2023-04-19T11:14:26;100723.78;;;14.68;67.32
71344;BME280;59146;43.850;25.948;2023-04-19T11:16:53;100666.00;;;14.55;66.25
71344;BME280;59146;43.850;25.948;2023-04-19T11:19:19;100721.91;;;15.27;65.38
71344;BME280;59146;43.850;25.948;2023-04-19T11:21:45;100710.56;;;15.26;63.77
71344;BME280;59146;43.850;25.948;2023-04-19T11:24:11;100589.13;;;14.86;63.51
71344;BME280;59146;43.850;25.948;2023-04-19T11:26:37;100714.44;;;16.00;62.71
71344;BME280;59146;43.850;25.948;2023-04-19T11:29:03;100691.38;;;16.24;60.81
71344;BME280;59146;43.850;25.948;2023-04-19T11:31:33;100710.06;;;16.21;61.56
71344;BME280;59146;43.850;25.948;2023-04-19T11:33:59;100662.59;;;15.78;62.25
71344;BME280;59146;43.850;25.948;2023-04-19T11:36:25;100701.38;;;15.98;62.04
71344;BME280;59146;43.850;25.948;2023-04-19T11:38:51;100694.13;;;16.22;60.91
71344;BME280;59146;43.850;25.948;2023-04-19T11:41:17;100702.94;;;16.43;60.60
71344;BME280;59146;43.850;25.948;2023-04-19T11:43:42;100709.06;;;16.44;60.77
71344;BME280;59146;43.850;25.948;2023-04-19T11:46:11;100659.50;;;16.27;59.77
71344;BME280;59146;43.850;25.948;2023-04-19T11:48:38;100704.97;;;16.83;59.54
71344;BME280;59146;43.850;25.948;2023-04-19T11:51:04;100683.19;;;16.69;59.18
71344;BME280;59146;43.850;25.948;2023-04-19T11:53:31;100701.28;;;16.74;58.36
71344;BME280;59146;43.850;25.948;2023-04-19T11:56:04;100635.34;;;16.53;59.07
71344;BME280;59146;43.850;25.948;2023-04-19T12:01:04;100677.38;;;17.37;57.78
71344;BME280;59146;43.850;25.948;2023-04-19T12:03:31;100673.50;;;17.41;55.35
71344;BME280;59146;43.850;25.948;2023-04-19T12:05:59;100677.78;;;17.33;56.25
71344;BME280;59146;43.850;25.948;2023-04-19T12:08:32;100643.94;;;17.47;57.16
71344;BME280;59146;43.850;25.948;2023-04-19T12:10:58;100665.91;;;17.48;56.25
71344;BME280;59146;43.850;25.948;2023-04-19T12:13:24;100655.59;;;17.15;56.96
71344;BME280;59146;43.850;25.948;2023-04-19T12:15:50;100657.09;;;17.08;58.16
71344;BME280;59146;43.850;25.948;2023-04-19T12:18:16;100530.31;;;16.38;57.47
71344;BME280;59146;43.850;25.948;2023-04-19T12:20:47;100594.91;;;17.15;56.92
71344;BME280;59146;43.850;25.948;2023-04-19T12:23:13;100617.16;;;17.52;55.31
71344;BME280;59146;43.850;25.948;2023-04-19T12:25:40;100597.88;;;17.31;56.82
71344;BME280;59146;43.850;25.948;2023-04-19T12:28:06;100631.56;;;17.78;57.47
71344;BME280;59146;43.850;25.948;2023-04-19T12:30:32;100600.38;;;17.72;55.36
71344;BME280;59146;43.850;25.948;2023-04-19T12:32:59;100632.38;;;17.69;56.39
71344;BME280;59146;43.850;25.948;2023-04-19T12:35:25;100588.91;;;17.13;56.99
71344;BME280;59146;43.850;25.948;2023-04-19T12:37:52;100540.97;;;17.08;57.05
71344;BME280;59146;43.850;25.948;2023-04-19T12:40:19;100626.38;;;17.67;55.89
71344;BME280;59146;43.850;25.948;2023-04-19T12:42:45;100494.59;;;17.15;55.39
71344;BME280;59146;43.850;25.948;2023-04-19T12:45:11;100597.38;;;17.86;55.31
71344;BME280;59146;43.850;25.948;2023-04-19T12:47:38;100600.13;;;17.85;54.94
71344;BME280;59146;43.850;25.948;2023-04-19T12:50:04;100616.31;;;18.10;54.46
71344;BME280;59146;43.850;25.948;2023-04-19T12:52:29;100561.38;;;17.95;54.24
71344;BME280;59146;43.850;25.948;2023-04-19T12:54:55;100556.50;;;18.00;54.65